Time;durP1;ratioP1;P1;durP2;ratioP2;P2;SDS_P1;SDS_P2;PMS_P1;PMS_P2;Temp;Humidity;BMP_temperature;BMP_pressure;BME280_temperature;BME280_humidity;BME280_pressure;Samples;Min_cycle;Max_cycle;Signal;HPM_P1;HPM_P2
2022/12/26 00:01:18;;;;;;;;;1.67;1.00;;;;;21.62;41.61;101137.38;5034177;28;45309;-69
2022/12/26 00:03:43;;;;;;;;;1.00;1.00;;;;;21.57;42.03;101143.16;5049577;27;45231;-69
2022/12/26 00:06:14;;;;;;;;;1.00;1.00;;;;;21.61;41.80;101141.00;5054809;28;46397;-69
2022/12/26 00:08:41;;;;;;;;;1.00;1.00;;;;;21.62;41.68;101137.38;5055055;28;45359;-69
2022/12/26 00:11:07;;;;;;;;;0.33;0.33;;;;;21.61;42.09;101139.19;5054749;28;45383;-68
2022/12/26 00:13:32;;;;;;;;;1.00;1.00;;;;;21.61;41.96;101149.78;5054818;28;45451;-69
2022/12/26 00:15:58;;;;;;;;;1.67;1.00;;;;;21.61;42.04;101138.38;5054767;28;47195;-69
2022/12/26 00:18:23;;;;;;;;;1.00;1.00;;;;;21.61;41.66;101154.25;5054978;28;45360;-68
2022/12/26 00:20:48;;;;;;;;;1.33;1.33;;;;;21.61;41.71;101154.25;5054958;28;45328;-69
2022/12/26 00:23:13;;;;;;;;;0.67;0.67;;;;;21.61;42.15;101141.00;5054971;28;45470;-69
2022/12/26 00:25:39;;;;;;;;;1.00;1.00;;;;;21.61;42.15;101146.31;5054223;28;45365;-69
2022/12/26 00:28:04;;;;;;;;;0.00;0.00;;;;;21.60;41.70;101134.88;5054715;28;45318;-69
2022/12/26 00:30:29;;;;;;;;;2.00;0.00;;;;;21.61;41.90;101151.59;5054795;28;45293;-68
2022/12/26 00:32:55;;;;;;;;;1.00;1.00;;;;;21.60;41.86;101160.53;5054395;28;45369;-69
2022/12/26 00:35:20;;;;;;;;;0.00;0.00;;;;;21.61;42.04;101165.69;5036606;28;47412;-68
2022/12/26 00:37:46;;;;;;;;;1.00;1.00;;;;;21.60;41.71;101156.06;5054592;28;45511;-69
2022/12/26 00:40:11;;;;;;;;;0.33;0.00;;;;;21.60;42.09;101136.69;5054262;28;45368;-68
2022/12/26 00:42:36;;;;;;;;;2.00;1.00;;;;;21.61;42.24;101138.38;5054729;28;45383;-69
2022/12/26 00:45:02;;;;;;;;;1.00;1.00;;;;;21.61;41.66;101141.00;5054234;28;47067;-68
2022/12/26 00:47:27;;;;;;;;;0.00;0.00;;;;;21.52;41.80;101124.31;5054544;28;45317;-69
2022/12/26 00:49:53;;;;;;;;;1.00;1.00;;;;;21.59;42.24;101137.72;5054604;28;45400;-69
2022/12/26 00:52:18;;;;;;;;;1.00;1.00;;;;;21.63;42.05;101141.66;5054562;28;45398;-69
2022/12/26 00:54:44;;;;;;;;;1.00;1.00;;;;;21.63;41.58;101153.09;5046959;28;46022;-69
2022/12/26 00:57:09;;;;;;;;;0.00;0.00;;;;;21.63;41.98;101174.28;5034337;28;45322;-69
2022/12/26 00:59:34;;;;;;;;;1.33;0.00;;;;;21.63;41.64;101173.44;5034356;28;45410;-69
2022/12/26 01:02:00;;;;;;;;;2.00;2.00;;;;;21.58;41.86;101166.00;5034608;27;45316;-69
2022/12/26 01:04:27;;;;;;;;;0.00;0.00;;;;;21.64;42.00;101172.44;5054021;28;46246;-68
2022/12/26 01:06:52;;;;;;;;;1.00;1.00;;;;;21.58;41.96;101159.88;5054349;28;45226;-69
2022/12/26 01:09:17;;;;;;;;;1.00;1.00;;;;;21.66;41.87;101161.69;5053963;28;45248;-69
2022/12/26 01:11:43;;;;;;;;;0.00;0.00;;;;;21.65;41.61;101152.91;5054303;28;45281;-69
2022/12/26 01:14:15;;;;;;;;;1.00;1.00;;;;;21.60;42.03;101157.88;5054134;28;47068;-69
2022/12/26 01:16:41;;;;;;;;;1.00;1.00;;;;;21.66;41.87;101161.69;5036008;28;45481;-69
2022/12/26 01:19:07;;;;;;;;;2.67;1.00;;;;;21.52;41.93;101156.91;5054108;28;45431;-69
2022/12/26 01:21:33;;;;;;;;;0.33;0.33;;;;;21.60;42.16;101179.06;5054136;28;45461;-69
2022/12/26 01:23:58;;;;;;;;;0.00;0.00;;;;;21.65;41.57;101182.03;5053550;28;45342;-69
2022/12/26 01:26:23;;;;;;;;;1.00;1.00;;;;;21.67;41.67;101184.53;5054064;28;45498;-69
2022/12/26 01:28:50;;;;;;;;;1.00;1.00;;;;;21.65;41.55;101205.88;5054006;28;45627;-69
2022/12/26 01:31:15;;;;;;;;;0.67;0.67;;;;;21.66;41.77;101201.41;5054006;28;45431;-68
2022/12/26 01:33:41;;;;;;;;;2.00;0.00;;;;;21.66;41.97;101193.47;5053747;28;46121;-68
2022/12/26 01:36:06;;;;;;;;;1.00;1.00;;;;;21.65;41.57;101184.69;5053981;28;45367;-69
2022/12/26 01:38:32;;;;;;;;;0.00;0.00;;;;;21.65;42.21;101184.69;5053577;28;45397;-69
2022/12/26 01:41:15;;;;;;;;;0.00;0.00;;;;;21.65;42.00;101187.34;5053894;28;45299;-68
2022/12/26 01:44:01;;;;;;;;;0.00;0.00;;;;;21.65;42.11;101186.53;5052624;28;46096;-68
2022/12/26 01:46:29;;;;;;;;;1.33;1.33;;;;;21.62;41.68;101180.56;5053613;28;45551;-69
2022/12/26 01:49:03;;;;;;;;;1.00;1.00;;;;;21.61;42.02;101184.22;5053882;28;45351;-69
2022/12/26 01:51:35;;;;;;;;;0.00;0.00;;;;;21.59;41.83;101180.09;5053439;28;45415;-68
2022/12/26 01:54:05;;;;;;;;;0.00;0.00;;;;;21.63;42.15;101195.44;5052498;28;47152;-69
2022/12/26 01:56:36;;;;;;;;;1.67;1.67;;;;;21.56;41.66;101188.34;5033556;28;45323;-69
2022/12/26 01:59:08;;;;;;;;;0.00;0.00;;;;;21.55;41.97;101182.22;5033661;28;45338;-68
2022/12/26 02:01:37;;;;;;;;;1.00;1.00;;;;;21.61;41.72;101200.09;5033382;28;45288;-69
2022/12/26 02:06:51;;;;;;;;;0.67;0.67;;;;;21.62;42.11;101211.53;5053070;28;45241;-69
2022/12/26 02:09:17;;;;;;;;;1.00;1.00;;;;;21.62;42.12;101219.47;5053659;28;45281;-68
2022/12/26 02:11:55;;;;;;;;;2.00;0.67;;;;;21.55;41.68;101210.53;5053598;28;45206;-69
2022/12/26 02:14:21;;;;;;;;;0.00;0.00;;;;;21.62;41.45;101206.22;5053379;28;47139;-68
2022/12/26 02:16:47;;;;;;;;;1.00;1.00;;;;;21.61;41.82;101212.50;5053251;28;45684;-69
2022/12/26 02:19:32;;;;;;;;;2.00;1.00;;;;;21.61;41.66;101213.34;5053490;28;45323;-69
2022/12/26 02:22:27;;;;;;;;;0.00;0.00;;;;;21.60;41.82;101214.31;5052473;28;45393;-69
2022/12/26 02:25:30;;;;;;;;;0.33;0.33;;;;;21.61;41.90;101223.09;5031030;28;45413;-69
2022/12/26 02:28:33;;;;;;;;;1.00;1.00;;;;;21.61;41.63;101236.34;4952045;28;45490;-69
2022/12/26 02:31:31;;;;;;;;;2.00;0.33;;;;;21.60;41.83;101243.44;4952158;28;45352;-69
2022/12/26 02:34:22;;;;;;;;;1.00;1.00;;;;;21.59;41.91;101244.47;4952113;28;45395;-67
2022/12/26 02:37:11;;;;;;;;;0.67;0.67;;;;;21.59;41.94;101230.38;4951900;28;47155;-69
2022/12/26 02:39:50;;;;;;;;;2.00;1.00;;;;;21.60;41.67;101232.03;4951885;28;45396;-69
2022/12/26 02:42:47;;;;;;;;;0.00;0.00;;;;;21.59;41.62;101225.09;4952023;28;45464;-69
2022/12/26 02:48:23;;;;;;;;;1.00;1.00;;;;;21.58;42.39;101224.25;4951837;28;45862;-68
2022/12/26 03:15:06;;;;;;;;;2.00;0.67;;;;;21.62;41.92;101211.53;4994664;27;45469;-69
2022/12/26 03:17:39;;;;;;;;;1.00;0.00;;;;;21.62;42.03;101209.69;4992880;28;45431;-69
2022/12/26 03:20:12;;;;;;;;;0.33;0.33;;;;;21.63;41.64;101199.91;4992483;28;45274;-69
2022/12/26 03:22:48;;;;;;;;;1.00;0.00;;;;;21.63;41.57;101203.41;4992533;28;45504;-68
2022/12/26 03:28:04;;;;;;;;;0.00;0.00;;;;;21.65;41.63;101210.34;4992814;28;45385;-69
2022/12/26 03:30:48;;;;;;;;;0.00;0.00;;;;;21.65;41.90;101207.72;4994156;28;45642;-69
2022/12/26 03:36:22;;;;;;;;;0.00;0.00;;;;;21.65;41.75;101215.66;4992471;28;45251;-69
2022/12/26 03:38:54;;;;;;;;;0.67;0.67;;;;;21.63;41.85;101205.22;4992613;28;45445;-69
2022/12/26 04:19:36;;;;;;;;;0.00;0.00;;;;;21.59;41.96;101254.22;4992858;28;45787;-69
2022/12/26 04:45:02;;;;;;;;;1.00;1.00;;;;;21.57;41.93;101286.13;4994335;28;45346;-69
2022/12/26 04:47:30;;;;;;;;;0.00;0.00;;;;;21.52;41.67;101286.66;4994934;28;45443;-68
2022/12/26 04:50:14;;;;;;;;;1.00;1.00;;;;;21.57;41.92;101287.97;4994751;28;45449;-68
2022/12/26 04:52:59;;;;;;;;;0.33;0.33;;;;;21.46;41.82;101257.38;4994646;28;45331;-68
2022/12/26 04:55:30;;;;;;;;;0.00;0.00;;;;;21.47;42.15;101259.84;4994415;28;45365;-69
2022/12/26 04:57:56;;;;;;;;;0.00;0.00;;;;;21.57;41.83;101277.41;4994788;28;45464;-69
2022/12/26 05:00:26;;;;;;;;;0.00;0.00;;;;;21.57;41.96;101275.53;4994317;28;45295;-69
2022/12/26 05:11:16;;;;;;;;;1.00;0.00;;;;;21.60;41.54;101267.28;5054234;28;45360;-69
2022/12/26 05:13:41;;;;;;;;;0.33;0.33;;;;;21.60;41.43;101263.78;5053872;28;47293;-68
2022/12/26 05:29:52;;;;;;;;;1.00;0.00;;;;;21.63;41.93;101284.66;5053694;28;45435;-68
2022/12/26 05:35:01;;;;;;;;;0.00;0.00;;;;;21.63;41.47;101288.13;5053886;28;45646;-69
2022/12/26 05:37:27;;;;;;;;;0.00;0.00;;;;;21.64;41.90;101281.03;5053902;28;45403;-69
2022/12/26 05:39:52;;;;;;;;;0.00;0.00;;;;;21.65;41.84;101287.16;5054126;28;45370;-69
2022/12/26 05:42:17;;;;;;;;;1.00;0.00;;;;;21.64;41.40;101286.31;5053975;28;45401;-69
2022/12/26 05:44:43;;;;;;;;;0.67;0.00;;;;;21.60;41.23;101290.28;5053381;28;47615;-69
2022/12/26 05:47:09;;;;;;;;;0.00;0.00;;;;;21.63;41.99;101298.72;5053134;28;45317;-69
2022/12/26 05:49:34;;;;;;;;;0.00;0.00;;;;;21.64;41.42;101302.22;5053840;28;45396;-69
2022/12/26 05:51:59;;;;;;;;;1.33;0.33;;;;;21.61;41.39;101298.06;5054033;28;45360;-69
2022/12/26 05:54:25;;;;;;;;;0.00;0.00;;;;;21.61;41.51;101303.38;5049288;28;47198;-69
2022/12/26 05:56:52;;;;;;;;;0.33;0.00;;;;;21.62;41.59;101299.72;5033737;28;45314;-69
2022/12/26 05:59:17;;;;;;;;;1.00;0.00;;;;;21.48;41.98;101285.34;5033344;28;45297;-69
2022/12/26 06:01:42;;;;;;;;;1.00;0.00;;;;;21.63;41.54;101308.47;5015550;28;45469;-69
2022/12/26 06:04:07;;;;;;;;;0.00;0.00;;;;;21.62;41.55;101305.00;5051483;28;46950;-69
2022/12/26 06:06:33;;;;;;;;;1.00;1.00;;;;;21.62;41.88;101312.16;5053489;28;45241;-69
2022/12/26 06:08:58;;;;;;;;;1.67;0.67;;;;;21.61;41.79;101298.06;5053508;28;45339;-68
2022/12/26 06:11:25;;;;;;;;;0.00;0.00;;;;;21.60;41.74;101296.41;5035636;28;45293;-69
2022/12/26 06:13:51;;;;;;;;;0.00;0.00;;;;;21.51;41.61;101289.47;5053014;28;46187;-69
2022/12/26 06:16:16;;;;;;;;;0.00;0.00;;;;;21.59;41.32;101302.72;5053396;28;45346;-69
2022/12/26 06:18:42;;;;;;;;;0.00;0.00;;;;;21.59;41.68;101307.19;5053675;28;45322;-69
2022/12/26 06:21:10;;;;;;;;;0.00;0.00;;;;;21.59;41.46;101305.34;5053371;28;45392;-68
2022/12/26 06:23:36;;;;;;;;;0.00;0.00;;;;;21.58;41.45;101316.94;5053288;28;45358;-69
2022/12/26 06:26:02;;;;;;;;;1.00;1.00;;;;;21.58;41.80;101324.88;5035224;28;45453;-69
2022/12/26 06:28:28;;;;;;;;;0.00;0.00;;;;;21.59;41.97;101329.19;5052954;28;45388;-69
2022/12/26 06:30:53;;;;;;;;;0.00;0.00;;;;;21.58;41.88;101346.06;5053009;28;45416;-69
2022/12/26 06:33:19;;;;;;;;;0.00;0.00;;;;;21.58;41.40;101347.88;5053146;28;46053;-69
2022/12/26 06:35:45;;;;;;;;;1.00;0.00;;;;;21.58;41.87;101348.72;5053364;28;45388;-69
2022/12/26 06:38:11;;;;;;;;;0.00;0.00;;;;;21.58;41.36;101337.28;5053392;28;45355;-69
2022/12/26 06:40:40;;;;;;;;;1.00;0.00;;;;;21.57;41.58;101333.00;5053237;28;45512;-69
2022/12/26 06:43:06;;;;;;;;;1.00;1.00;;;;;21.53;41.60;101335.13;5052519;28;45305;-69
2022/12/26 06:45:32;;;;;;;;;0.00;0.00;;;;;21.58;41.92;101342.56;5052795;28;45335;-69
2022/12/26 06:47:58;;;;;;;;;0.00;0.00;;;;;21.58;41.88;101347.88;5053143;28;45368;-69
2022/12/26 06:50:24;;;;;;;;;0.33;0.33;;;;;21.56;41.38;101349.88;5053144;28;45405;-69
2022/12/26 06:52:49;;;;;;;;;0.00;0.00;;;;;21.58;41.42;101348.72;5052737;28;45321;-69
2022/12/26 06:55:14;;;;;;;;;0.00;0.00;;;;;21.57;41.51;101351.53;5041839;28;45259;-69
2022/12/26 06:57:40;;;;;;;;;1.00;1.00;;;;;21.57;41.58;101359.47;5032867;28;45346;-68
2022/12/26 07:00:06;;;;;;;;;0.00;0.00;;;;;21.56;41.89;101357.81;5032876;28;45301;-69
2022/12/26 07:02:31;;;;;;;;;2.00;0.00;;;;;21.57;42.36;101360.28;5036980;28;46096;-69
2022/12/26 07:04:56;;;;;;;;;0.00;0.00;;;;;21.58;41.90;101348.72;5052383;28;45413;-69
2022/12/26 07:07:21;;;;;;;;;0.00;0.00;;;;;21.58;41.32;101359.28;5052804;28;45347;-69
2022/12/26 07:09:47;;;;;;;;;1.00;0.00;;;;;21.58;41.63;101372.53;5052342;28;45539;-68
2022/12/26 07:12:12;;;;;;;;;0.00;0.00;;;;;21.59;41.55;101376.00;5034433;27;46578;-69
2022/12/26 07:14:38;;;;;;;;;0.00;0.00;;;;;21.59;41.60;101376.84;5052496;28;45403;-68
2022/12/26 07:17:03;;;;;;;;;0.00;0.00;;;;;21.59;41.51;101384.78;5052709;28;45353;-69
2022/12/26 07:19:28;;;;;;;;;0.00;0.00;;;;;21.61;41.78;101381.97;5052584;28;45344;-69
2022/12/26 07:21:53;;;;;;;;;1.00;0.00;;;;;21.61;41.78;101380.16;5052456;28;45983;-68
2022/12/26 07:24:20;;;;;;;;;0.00;0.00;;;;;21.62;41.85;101378.34;5051963;28;45577;-68
2022/12/26 07:26:47;;;;;;;;;0.00;0.00;;;;;21.62;41.48;101381.78;5052558;28;45354;-69
2022/12/26 07:29:13;;;;;;;;;0.00;0.00;;;;;21.63;41.29;101377.34;5052480;28;45198;-69
2022/12/26 07:31:39;;;;;;;;;0.00;0.00;;;;;21.62;41.27;101384.44;5034025;28;45871;-68
2022/12/26 07:34:05;;;;;;;;;0.00;0.00;;;;;21.62;41.76;101389.75;5052429;28;45298;-69
2022/12/26 07:36:31;;;;;;;;;0.00;0.00;;;;;21.61;41.53;101388.09;5052209;28;45373;-69
2022/12/26 07:38:56;;;;;;;;;0.00;0.00;;;;;21.57;41.62;101386.75;5052025;28;45367;-69
2022/12/26 07:44:05;;;;;;;;;1.67;0.00;;;;;21.63;41.73;101399.34;5055435;28;45313;-69
2022/12/26 07:46:31;;;;;;;;;0.00;0.00;;;;;21.63;41.60;101402.00;5055382;28;45372;-69
2022/12/26 07:48:58;;;;;;;;;0.00;0.00;;;;;21.55;41.70;101390.56;5055431;28;45368;-69
2022/12/26 07:51:23;;;;;;;;;1.00;0.00;;;;;21.62;41.32;101410.94;5055217;28;45419;-69
2022/12/26 07:53:49;;;;;;;;;0.00;0.00;;;;;21.62;41.39;101404.81;5054710;28;45483;-69
2022/12/26 07:56:15;;;;;;;;;0.00;0.00;;;;;21.62;41.43;101423.34;5035960;28;45317;-69
2022/12/26 07:58:40;;;;;;;;;0.00;0.00;;;;;21.61;41.37;101419.88;5035167;28;45380;-68
2022/12/26 08:01:05;;;;;;;;;0.00;0.00;;;;;21.54;41.64;101418.03;5034834;28;45346;-68
2022/12/26 08:03:32;;;;;;;;;0.00;0.00;;;;;21.60;41.44;101428.81;5047553;28;45498;-68
2022/12/26 08:05:58;;;;;;;;;0.00;0.00;;;;;21.50;41.66;101409.59;5055033;28;45268;-69
2022/12/26 08:08:24;;;;;;;;;0.00;0.00;;;;;21.61;41.51;101429.63;5054742;28;45234;-69
2022/12/26 08:11:01;;;;;;;;;0.00;0.00;;;;;21.61;41.51;101443.72;5054788;28;46329;-69
2022/12/26 08:13:28;;;;;;;;;0.00;0.00;;;;;21.60;41.44;101449.16;5054790;28;45339;-69
2022/12/26 08:15:53;;;;;;;;;0.00;0.00;;;;;21.59;41.39;101450.16;5054995;28;45512;-69
2022/12/26 08:18:19;;;;;;;;;0.00;0.00;;;;;21.60;41.41;101459.75;5054848;28;45367;-69
2022/12/26 08:20:44;;;;;;;;;0.00;0.00;;;;;21.59;41.87;101463.41;5054878;28;45391;-69
2022/12/26 08:23:09;;;;;;;;;0.67;0.67;;;;;21.56;41.73;101472.50;5054405;28;45382;-68
2022/12/26 08:25:35;;;;;;;;;0.00;0.00;;;;;21.57;41.43;101474.13;5054837;28;45343;-68
2022/12/26 08:28:00;;;;;;;;;0.00;0.00;;;;;21.58;41.52;101483.75;5036786;28;45482;-69
2022/12/26 08:30:25;;;;;;;;;0.00;0.00;;;;;21.59;41.63;101482.78;5054659;28;46260;-69
2022/12/26 08:32:51;;;;;;;;;0.00;0.00;;;;;21.58;41.43;101489.03;5054937;28;45286;-69
2022/12/26 08:35:16;;;;;;;;;0.33;0.00;;;;;21.59;41.42;101492.53;5054832;28;45260;-68
2022/12/26 08:37:42;;;;;;;;;0.00;0.00;;;;;21.58;41.30;101501.44;5054392;28;45458;-68
2022/12/26 08:40:08;;;;;;;;;0.00;0.00;;;;;21.55;41.98;101497.31;5054540;28;47169;-69
2022/12/26 08:42:33;;;;;;;;;0.00;0.00;;;;;21.58;41.90;101504.09;5054549;28;45314;-69
2022/12/26 08:44:58;;;;;;;;;0.00;0.00;;;;;21.58;41.65;101496.16;5054530;28;45259;-69
2022/12/26 08:47:26;;;;;;;;;0.00;0.00;;;;;21.55;41.35;101493.81;5054824;28;45349;-69
2022/12/26 08:49:51;;;;;;;;;1.00;1.00;;;;;21.57;41.64;101497.16;5054463;28;47283;-68
2022/12/26 08:52:17;;;;;;;;;0.00;0.00;;;;;21.56;41.98;101496.31;5053618;27;45492;-69
2022/12/26 08:54:42;;;;;;;;;0.33;0.00;;;;;21.57;41.73;101507.75;5047962;28;45276;-69
2022/12/26 08:57:08;;;;;;;;;0.00;0.00;;;;;21.56;41.92;101511.38;5034379;28;45392;-69
2022/12/26 08:59:33;;;;;;;;;0.00;0.00;;;;;21.56;41.63;101511.38;5034362;28;45917;-68
2022/12/26 09:01:59;;;;;;;;;0.00;0.00;;;;;21.57;41.59;101515.69;5032904;28;45480;-69
2022/12/26 09:04:24;;;;;;;;;0.00;0.00;;;;;21.56;41.53;101520.16;5054467;28;45380;-69
2022/12/26 09:06:49;;;;;;;;;0.33;0.33;;;;;21.57;41.76;101532.38;5054120;28;45377;-69
2022/12/26 09:09:14;;;;;;;;;0.00;0.00;;;;;;;;5036329;28;47120;-69
2022/12/26 09:11:41;;;;;;;;;0.67;0.00;;;;;21.56;41.99;101551.09;5036215;28;45925;-69
2022/12/26 09:14:06;;;;;;;;;0.00;0.00;;;;;21.57;41.88;101558.88;5054448;28;45291;-69
2022/12/26 09:16:41;;;;;;;;;0.00;0.00;;;;;21.57;41.52;101576.59;5054165;28;45337;-68
2022/12/26 09:19:10;;;;;;;;;0.00;0.00;;;;;21.59;41.60;101571.97;5053919;28;46193;-69
2022/12/26 09:21:35;;;;;;;;;0.00;0.00;;;;;21.52;41.73;101564.66;5053643;28;45236;-69
2022/12/26 09:24:08;;;;;;;;;1.00;0.00;;;;;21.59;41.86;101586.03;5054055;28;45341;-69
2022/12/26 09:26:34;;;;;;;;;0.00;0.00;;;;;21.49;41.41;101574.75;5054190;28;45328;-69
2022/12/26 09:28:59;;;;;;;;;0.00;0.00;;;;;21.61;41.61;101593.81;5053853;28;46106;-69
2022/12/26 09:31:27;;;;;;;;;0.00;0.00;;;;;21.61;41.69;101588.53;5054014;28;45357;-69
2022/12/26 09:33:52;;;;;;;;;0.00;0.00;;;;;21.61;41.38;101589.34;5054080;28;45485;-68
2022/12/26 09:36:21;;;;;;;;;0.33;0.00;;;;;21.61;41.51;101586.72;5053670;28;45401;-69
2022/12/26 09:38:48;;;;;;;;;0.00;0.00;;;;;21.63;41.83;101594.47;5054039;28;46155;-69
2022/12/26 09:41:13;;;;;;;;;0.00;0.00;;;;;21.62;41.80;101598.94;5053751;28;45241;-69
2022/12/26 09:43:55;;;;;;;;;0.00;0.00;;;;;21.63;41.68;101608.56;5053895;28;45317;-69
2022/12/26 09:46:43;;;;;;;;;1.00;0.00;;;;;21.63;41.31;101611.22;5053780;28;45594;-69
2022/12/26 09:49:17;;;;;;;;;0.00;0.00;;;;;21.64;41.73;101617.34;5053624;28;45256;-69
2022/12/26 09:51:47;;;;;;;;;0.00;0.00;;;;;21.65;41.70;101620.81;5053802;28;45533;-69
2022/12/26 09:54:33;;;;;;;;;0.00;0.00;;;;;21.64;41.68;101627.94;5051375;28;45440;-69
2022/12/26 09:57:02;;;;;;;;;0.33;0.33;;;;;21.60;41.60;101627.41;5033619;28;45486;-69
2022/12/26 09:59:31;;;;;;;;;0.00;0.00;;;;;21.58;41.54;101631.19;5033409;28;47202;-68
2022/12/26 10:01:56;;;;;;;;;0.33;0.33;;;;;21.62;41.29;101643.16;5033324;28;45356;-68
2022/12/26 10:04:27;;;;;;;;;0.67;0.00;;;;;21.59;41.43;101646.13;5052043;27;45522;-69
2022/12/26 10:06:58;;;;;;;;;0.00;0.00;;;;;21.62;41.35;101680.22;5053717;28;45381;-69
2022/12/26 10:09:38;;;;;;;;;0.00;0.00;;;;;21.63;42.09;101660.69;5053434;28;46049;-69
2022/12/26 10:12:37;;;;;;;;;0.00;0.00;;;;;21.63;41.67;101684.53;5053568;28;45283;-69
2022/12/26 10:15:28;;;;;;;;;0.00;0.00;;;;;21.62;41.49;101688.97;5053510;28;45361;-69
2022/12/26 10:18:28;;;;;;;;;0.00;0.00;;;;;21.62;41.66;101685.53;5053439;28;45267;-69
2022/12/26 10:21:33;;;;;;;;;0.00;0.00;;;;;21.61;41.70;101705.88;5053197;28;45350;-69
2022/12/26 10:24:05;;;;;;;;;0.00;0.00;;;;;21.61;41.25;101712.97;5053094;28;45403;-69
2022/12/26 10:26:36;;;;;;;;;0.00;0.00;;;;;21.61;41.23;101715.63;5053392;28;45382;-69
2022/12/26 10:29:04;;;;;;;;;0.00;0.00;;;;;21.60;41.35;101725.38;5053314;28;45368;-69
2022/12/26 10:31:40;;;;;;;;;0.00;0.00;;;;;21.59;40.92;101728.19;5053138;28;46401;-68
2022/12/26 10:34:30;;;;;;;;;0.00;0.00;;;;;21.59;41.79;101733.50;5052812;28;45320;-69
2022/12/26 10:37:14;;;;;;;;;0.00;0.00;;;;;21.59;41.46;101725.56;5053201;28;45333;-69
2022/12/26 10:39:50;;;;;;;;;1.00;1.00;;;;;21.58;41.77;101729.19;5053350;28;45294;-69
2022/12/26 10:42:34;;;;;;;;;0.00;0.00;;;;;21.59;41.43;101728.19;5052869;28;46992;-69
2022/12/26 10:44:59;;;;;;;;;0.00;0.00;;;;;21.50;41.39;101714.91;5052886;28;45434;-69
2022/12/26 10:47:38;;;;;;;;;2.00;0.00;;;;;21.59;41.73;101736.16;5052722;28;45410;-68
2022/12/26 10:50:04;;;;;;;;;0.00;0.00;;;;;21.58;41.72;101735.31;5035153;28;45286;-69
2022/12/26 10:52:37;;;;;;;;;1.00;0.00;;;;;21.58;41.70;101740.59;5052561;28;47102;-69
2022/12/26 10:55:03;;;;;;;;;2.00;0.00;;;;;21.58;41.27;101743.25;5043301;28;45336;-68
2022/12/26 10:57:34;;;;;;;;;0.00;0.00;;;;;21.59;41.73;101744.09;5032897;28;45472;-69
2022/12/26 11:00:01;;;;;;;;;0.00;0.00;;;;;21.53;41.70;101737.59;5032806;27;45560;-69
2022/12/26 11:02:28;;;;;;;;;1.00;1.00;;;;;21.58;41.50;101748.56;5035188;28;47575;-69
2022/12/26 11:05:11;;;;;;;;;0.00;0.00;;;;;21.59;41.34;101757.34;5052585;28;45214;-69
2022/12/26 11:07:40;;;;;;;;;1.67;0.33;;;;;21.58;41.37;101753.84;5052715;28;45305;-69
2022/12/26 11:10:16;;;;;;;;;0.00;0.00;;;;;21.55;41.46;101745.38;5034665;28;45415;-69
2022/12/26 11:12:50;;;;;;;;;0.00;0.00;;;;;21.58;41.53;101756.50;5052412;28;46295;-69
2022/12/26 11:15:29;;;;;;;;;0.00;0.00;;;;;21.59;41.73;101760.81;5053272;28;45254;-69
2022/12/26 11:18:08;;;;;;;;;0.00;0.00;;;;;21.57;41.42;101754.81;5055452;28;45387;-68
2022/12/26 11:20:33;;;;;;;;;0.00;0.00;;;;;21.51;41.55;101760.75;5055602;28;45576;-69
2022/12/26 11:23:22;;;;;;;;;1.00;0.00;;;;;21.57;41.49;101768.06;5055334;28;46133;-69
2022/12/26 11:25:54;;;;;;;;;0.00;0.00;;;;;21.58;41.25;101769.72;5055501;28;45403;-68
2022/12/26 11:28:25;;;;;;;;;0.00;0.00;;;;;21.58;41.30;101775.03;5055510;28;45194;-68
2022/12/26 11:30:51;;;;;;;;;0.00;0.00;;;;;21.59;41.33;101775.88;5055133;28;45470;-68
2022/12/26 11:33:26;;;;;;;;;1.33;0.00;;;;;21.59;41.65;101789.94;5055365;28;46297;-68
2022/12/26 11:36:10;;;;;;;;;0.00;0.00;;;;;21.60;41.36;101793.41;5037479;28;45330;-69
2022/12/26 11:39:02;;;;;;;;;0.67;0.67;;;;;21.62;41.56;101796.75;5055420;28;45326;-69
2022/12/26 11:41:30;;;;;;;;;0.00;0.00;;;;;21.61;41.66;101792.44;5044075;28;45345;-69
2022/12/26 11:44:34;;;;;;;;;0.00;0.00;;;;;21.61;41.38;101795.06;5055156;28;45717;-68
2022/12/26 11:47:10;;;;;;;;;0.00;0.00;;;;;21.62;41.71;101802.84;5054734;28;45407;-69
2022/12/26 11:50:04;;;;;;;;;0.00;0.00;;;;;21.62;41.46;101797.56;5055362;28;45360;-68
2022/12/26 11:53:05;;;;;;;;;0.00;0.00;;;;;21.63;41.56;101806.34;5045279;28;45487;-69
2022/12/26 11:55:34;;;;;;;;;0.00;0.00;;;;;21.65;41.11;101811.50;5037224;28;46493;-68
2022/12/26 11:58:08;;;;;;;;;0.00;0.00;;;;;21.63;41.29;101812.47;5034968;28;45395;-69
2022/12/26 12:00:43;;;;;;;;;0.00;0.00;;;;;21.64;41.29;101813.31;5034859;28;45381;-69
2022/12/26 12:03:14;;;;;;;;;0.00;0.00;;;;;21.63;41.49;101820.41;5044378;28;45349;-69
2022/12/26 12:06:15;;;;;;;;;0.00;0.00;;;;;21.64;41.60;101821.25;5054874;28;46100;-69
2022/12/26 12:08:58;;;;;;;;;0.00;0.00;;;;;21.62;41.48;101816.09;5054883;28;45341;-68
2022/12/26 12:11:45;;;;;;;;;0.00;0.00;;;;;21.63;41.38;101816.94;5055103;28;45415;-68
2022/12/26 12:14:35;;;;;;;;;0.00;0.00;;;;;21.63;41.13;101822.22;5054960;28;45390;-69
2022/12/26 12:17:11;;;;;;;;;0.00;0.00;;;;;21.61;41.15;101811.81;5054829;28;46161;-69
2022/12/26 12:19:45;;;;;;;;;0.00;0.00;;;;;21.48;41.57;101801.59;5054774;28;45527;-68
2022/12/26 12:22:16;;;;;;;;;0.00;0.00;;;;;21.60;41.51;101818.06;5054977;28;45294;-68
2022/12/26 12:24:53;;;;;;;;;0.00;0.00;;;;;21.59;41.42;101821.72;5054706;28;45244;-69
2022/12/26 12:27:25;;;;;;;;;0.00;0.00;;;;;21.60;41.46;101809.28;5054215;28;46231;-69
2022/12/26 12:30:12;;;;;;;;;0.00;0.00;;;;;21.60;41.52;101807.47;5054308;28;45380;-68
2022/12/26 12:32:59;;;;;;;;;1.00;1.00;;;;;21.59;41.47;101811.13;5054693;28;45225;-68
2022/12/26 12:35:48;;;;;;;;;0.00;0.00;;;;;21.59;41.09;101808.47;5054881;28;45363;-69
2022/12/26 12:38:23;;;;;;;;;0.00;0.00;;;;;21.60;41.17;101814.59;5054550;28;47364;-69
2022/12/26 12:41:20;;;;;;;;;0.00;0.00;;;;;21.59;41.13;101815.59;5054643;28;45418;-68
2022/12/26 12:44:00;;;;;;;;;0.00;0.00;;;;;21.58;41.12;101809.47;5054166;28;45349;-69
2022/12/26 12:46:43;;;;;;;;;0.00;0.00;;;;;21.58;41.13;101809.47;5054567;28;45264;-69
2022/12/26 12:49:26;;;;;;;;;0.00;0.00;;;;;21.57;40.92;101814.91;5054330;28;46153;-69
2022/12/26 12:52:22;;;;;;;;;0.00;0.00;;;;;21.58;41.47;101830.63;5054460;28;45396;-69
2022/12/26 12:54:50;;;;;;;;;0.00;0.00;;;;;21.58;41.45;101819.22;5046556;28;45426;-68
2022/12/26 12:57:42;;;;;;;;;0.00;0.00;;;;;21.58;41.56;101821.84;5034251;28;45586;-68
2022/12/26 13:00:13;;;;;;;;;1.00;0.00;;;;;21.57;41.45;101828.97;5037905;28;47060;-68
2022/12/26 13:02:57;;;;;;;;;0.00;0.00;;;;;21.58;41.21;101837.75;5039572;28;45453;-69
2022/12/26 13:05:52;;;;;;;;;0.00;0.00;;;;;21.57;41.27;101842.22;5054276;28;45450;-69
2022/12/26 13:08:24;;;;;;;;;0.00;0.00;;;;;21.57;41.11;101839.56;5054248;28;45485;-69
2022/12/26 13:10:56;;;;;;;;;0.00;0.00;;;;;21.57;41.45;101849.34;5054168;28;47034;-69
2022/12/26 13:13:28;;;;;;;;;0.00;0.00;;;;;21.56;41.49;101847.66;5053846;28;45371;-69
2022/12/26 13:16:01;;;;;;;;;0.33;0.00;;;;;21.57;41.08;101857.28;5054346;28;45396;-69
2022/12/26 13:18:33;;;;;;;;;0.00;0.00;;;;;21.57;41.59;101863.41;5054216;28;45385;-69
2022/12/26 13:21:05;;;;;;;;;1.00;1.00;;;;;21.56;41.08;101869.69;5053968;28;45377;-69
2022/12/26 13:26:54;;;;;;;;;0.33;0.33;;;;;21.57;41.48;101875.81;5053844;28;45403;-68
2022/12/26 13:29:41;;;;;;;;;0.00;0.00;;;;;21.56;41.23;101868.84;5054071;28;45475;-69
2022/12/26 13:32:22;;;;;;;;;0.00;0.00;;;;;21.56;41.03;101868.84;5053890;28;45927;-69
2022/12/26 13:34:50;;;;;;;;;0.00;0.00;;;;;21.52;41.25;101871.81;5053822;28;45380;-69
2022/12/26 13:37:34;;;;;;;;;0.67;0.00;;;;;21.58;41.64;101880.13;5054115;28;45449;-68
2022/12/26 13:40:02;;;;;;;;;0.00;0.00;;;;;21.58;41.04;101874.81;5052780;28;45320;-69
2022/12/26 13:45:34;;;;;;;;;0.00;0.00;;;;;21.60;41.39;101886.09;5053685;28;45359;-68
2022/12/26 13:48:01;;;;;;;;;0.00;0.00;;;;;21.60;40.97;101888.75;5053855;28;45353;-71
2022/12/26 13:51:03;;;;;;;;;0.00;0.00;;;;;21.60;41.44;101881.63;5035868;28;45604;-68
2022/12/26 13:53:37;;;;;;;;;0.00;0.00;;;;;21.61;41.15;101893.91;4952490;28;45909;-69
2022/12/26 13:56:17;;;;;;;;;0.00;0.00;;;;;21.62;41.18;101894.75;4935336;28;45505;-69
2022/12/26 13:58:52;;;;;;;;;0.00;0.00;;;;;21.62;41.16;101898.19;4933432;28;45410;-69